sensor_id;sensor_type;location;lat;lon;timestamp;temperature;humidity
24224;DHT22;12359;49.716;9.212;2023-09-07T00:01:26;15.30;1.00
24224;DHT22;12359;49.716;9.212;2023-09-07T00:03:51;15.20;1.00
24224;DHT22;12359;49.716;9.212;2023-09-07T00:06:17;15.20;1.00
24224;DHT22;12359;49.716;9.212;2023-09-07T00:08:44;15.20;1.00
24224;DHT22;12359;49.716;9.212;2023-09-07T00:11:09;15.20;1.00
24224;DHT22;12359;49.716;9.212;2023-09-07T00:13:36;15.10;1.00
24224;DHT22;12359;49.716;9.212;2023-09-07T00:16:03;15.10;1.00
24224;DHT22;12359;49.716;9.212;2023-09-07T00:18:30;15.00;1.00
24224;DHT22;12359;49.716;9.212;2023-09-07T00:20:56;14.90;1.00
24224;DHT22;12359;49.716;9.212;2023-09-07T00:23:21;14.80;1.00
24224;DHT22;12359;49.716;9.212;2023-09-07T00:25:47;14.80;1.00
24224;DHT22;12359;49.716;9.212;2023-09-07T00:28:13;14.80;1.00
24224;DHT22;12359;49.716;9.212;2023-09-07T00:30:39;14.80;1.00
24224;DHT22;12359;49.716;9.212;2023-09-07T00:33:06;14.80;1.00
24224;DHT22;12359;49.716;9.212;2023-09-07T00:35:31;14.70;1.00
24224;DHT22;12359;49.716;9.212;2023-09-07T00:37:57;14.70;1.00
24224;DHT22;12359;49.716;9.212;2023-09-07T00:40:23;14.60;1.00
24224;DHT22;12359;49.716;9.212;2023-09-07T00:42:48;14.60;1.00
24224;DHT22;12359;49.716;9.212;2023-09-07T00:45:15;14.50;1.00
24224;DHT22;12359;49.716;9.212;2023-09-07T00:47:41;14.50;2.00
24224;DHT22;12359;49.716;9.212;2023-09-07T00:50:07;14.60;1.20
24224;DHT22;12359;49.716;9.212;2023-09-07T00:52:34;14.50;1.00
24224;DHT22;12359;49.716;9.212;2023-09-07T00:55:01;14.50;1.30
24224;DHT22;12359;49.716;9.212;2023-09-07T00:57:27;14.40;4.20
24224;DHT22;12359;49.716;9.212;2023-09-07T00:59:54;14.30;10.10
24224;DHT22;12359;49.716;9.212;2023-09-07T01:02:20;14.30;16.90
24224;DHT22;12359;49.716;9.212;2023-09-07T01:04:45;14.30;19.00
24224;DHT22;12359;49.716;9.212;2023-09-07T01:07:19;14.20;21.60
24224;DHT22;12359;49.716;9.212;2023-09-07T01:09:51;14.20;31.30
24224;DHT22;12359;49.716;9.212;2023-09-07T01:12:17;14.20;28.30
24224;DHT22;12359;49.716;9.212;2023-09-07T01:14:43;14.20;31.20
24224;DHT22;12359;49.716;9.212;2023-09-07T01:17:09;14.10;33.10
24224;DHT22;12359;49.716;9.212;2023-09-07T01:19:36;14.00;31.10
24224;DHT22;12359;49.716;9.212;2023-09-07T01:22:02;14.00;42.10
24224;DHT22;12359;49.716;9.212;2023-09-07T01:24:30;14.00;46.30
24224;DHT22;12359;49.716;9.212;2023-09-07T01:26:59;14.00;43.40
24224;DHT22;12359;49.716;9.212;2023-09-07T01:29:26;14.00;45.10
24224;DHT22;12359;49.716;9.212;2023-09-07T01:31:54;14.00;41.90
24224;DHT22;12359;49.716;9.212;2023-09-07T01:34:20;14.00;42.20
24224;DHT22;12359;49.716;9.212;2023-09-07T01:36:46;14.00;40.00
24224;DHT22;12359;49.716;9.212;2023-09-07T01:39:12;14.00;43.40
24224;DHT22;12359;49.716;9.212;2023-09-07T01:41:37;13.90;44.80
24224;DHT22;12359;49.716;9.212;2023-09-07T01:44:03;13.90;43.40
24224;DHT22;12359;49.716;9.212;2023-09-07T01:46:29;13.90;46.20
24224;DHT22;12359;49.716;9.212;2023-09-07T01:48:55;13.90;46.70
24224;DHT22;12359;49.716;9.212;2023-09-07T01:51:20;13.90;46.70
24224;DHT22;12359;49.716;9.212;2023-09-07T01:53:49;13.80;43.60
24224;DHT22;12359;49.716;9.212;2023-09-07T01:56:18;13.80;46.70
24224;DHT22;12359;49.716;9.212;2023-09-07T01:58:43;13.80;48.10
24224;DHT22;12359;49.716;9.212;2023-09-07T02:01:26;13.80;49.00
24224;DHT22;12359;49.716;9.212;2023-09-07T02:03:52;13.70;51.00
24224;DHT22;12359;49.716;9.212;2023-09-07T02:06:18;13.70;53.70
24224;DHT22;12359;49.716;9.212;2023-09-07T02:08:44;13.70;51.50
24224;DHT22;12359;49.716;9.212;2023-09-07T02:11:10;13.70;54.10
24224;DHT22;12359;49.716;9.212;2023-09-07T02:13:36;13.60;52.40
24224;DHT22;12359;49.716;9.212;2023-09-07T02:16:05;13.60;53.60
24224;DHT22;12359;49.716;9.212;2023-09-07T02:18:32;13.60;54.60
24224;DHT22;12359;49.716;9.212;2023-09-07T02:21:04;13.50;54.50
24224;DHT22;12359;49.716;9.212;2023-09-07T02:23:31;13.50;55.90
24224;DHT22;12359;49.716;9.212;2023-09-07T02:25:57;13.60;55.30
24224;DHT22;12359;49.716;9.212;2023-09-07T02:28:24;13.60;54.40
24224;DHT22;12359;49.716;9.212;2023-09-07T02:30:50;13.60;54.20
24224;DHT22;12359;49.716;9.212;2023-09-07T02:33:16;13.60;54.20
24224;DHT22;12359;49.716;9.212;2023-09-07T02:35:41;13.60;53.50
24224;DHT22;12359;49.716;9.212;2023-09-07T02:38:07;13.50;51.50
24224;DHT22;12359;49.716;9.212;2023-09-07T02:40:33;13.50;52.10
24224;DHT22;12359;49.716;9.212;2023-09-07T02:43:04;13.50;50.60
24224;DHT22;12359;49.716;9.212;2023-09-07T02:45:30;13.50;52.00
24224;DHT22;12359;49.716;9.212;2023-09-07T02:47:56;13.50;53.20
24224;DHT22;12359;49.716;9.212;2023-09-07T02:50:22;13.50;50.50
24224;DHT22;12359;49.716;9.212;2023-09-07T02:52:48;13.50;49.30
24224;DHT22;12359;49.716;9.212;2023-09-07T02:55:13;13.50;49.10
24224;DHT22;12359;49.716;9.212;2023-09-07T02:57:39;13.50;52.10
24224;DHT22;12359;49.716;9.212;2023-09-07T03:00:05;13.50;49.90
24224;DHT22;12359;49.716;9.212;2023-09-07T03:02:35;13.50;48.90
24224;DHT22;12359;49.716;9.212;2023-09-07T03:05:04;13.50;44.20
24224;DHT22;12359;49.716;9.212;2023-09-07T03:07:32;13.40;43.60
24224;DHT22;12359;49.716;9.212;2023-09-07T03:09:58;13.40;46.20
24224;DHT22;12359;49.716;9.212;2023-09-07T03:12:24;13.40;46.40
24224;DHT22;12359;49.716;9.212;2023-09-07T03:14:49;13.30;49.50
24224;DHT22;12359;49.716;9.212;2023-09-07T03:17:16;13.30;48.00
24224;DHT22;12359;49.716;9.212;2023-09-07T03:19:42;13.30;46.30
24224;DHT22;12359;49.716;9.212;2023-09-07T03:22:08;13.20;50.80
24224;DHT22;12359;49.716;9.212;2023-09-07T03:24:34;13.10;49.90
24224;DHT22;12359;49.716;9.212;2023-09-07T03:27:00;13.10;53.20
24224;DHT22;12359;49.716;9.212;2023-09-07T03:29:25;13.20;54.20
24224;DHT22;12359;49.716;9.212;2023-09-07T03:31:51;13.10;52.40
24224;DHT22;12359;49.716;9.212;2023-09-07T03:34:17;13.10;53.00
24224;DHT22;12359;49.716;9.212;2023-09-07T03:36:43;13.10;54.00
24224;DHT22;12359;49.716;9.212;2023-09-07T03:39:09;13.10;52.40
24224;DHT22;12359;49.716;9.212;2023-09-07T03:41:35;13.10;52.00
24224;DHT22;12359;49.716;9.212;2023-09-07T03:44:01;13.10;57.70
24224;DHT22;12359;49.716;9.212;2023-09-07T03:46:27;13.10;56.90
24224;DHT22;12359;49.716;9.212;2023-09-07T03:48:53;13.20;57.00
24224;DHT22;12359;49.716;9.212;2023-09-07T03:51:18;13.20;53.10
24224;DHT22;12359;49.716;9.212;2023-09-07T03:53:44;13.20;51.50
24224;DHT22;12359;49.716;9.212;2023-09-07T03:56:11;13.10;47.80
24224;DHT22;12359;49.716;9.212;2023-09-07T03:58:36;13.10;49.20
24224;DHT22;12359;49.716;9.212;2023-09-07T04:01:02;13.00;52.40
24224;DHT22;12359;49.716;9.212;2023-09-07T04:03:28;13.00;56.10
24224;DHT22;12359;49.716;9.212;2023-09-07T04:05:53;13.00;55.80
24224;DHT22;12359;49.716;9.212;2023-09-07T04:08:19;13.00;54.80
24224;DHT22;12359;49.716;9.212;2023-09-07T04:10:45;13.00;53.80
24224;DHT22;12359;49.716;9.212;2023-09-07T04:13:10;12.90;52.10
24224;DHT22;12359;49.716;9.212;2023-09-07T04:15:43;12.90;56.30
24224;DHT22;12359;49.716;9.212;2023-09-07T04:18:10;12.80;54.20
24224;DHT22;12359;49.716;9.212;2023-09-07T04:20:38;12.80;58.80
24224;DHT22;12359;49.716;9.212;2023-09-07T04:23:04;12.80;61.10
24224;DHT22;12359;49.716;9.212;2023-09-07T04:25:30;12.80;57.80
24224;DHT22;12359;49.716;9.212;2023-09-07T04:27:57;12.80;55.50
24224;DHT22;12359;49.716;9.212;2023-09-07T04:30:23;12.80;59.40
24224;DHT22;12359;49.716;9.212;2023-09-07T04:32:48;12.80;58.20
24224;DHT22;12359;49.716;9.212;2023-09-07T04:35:14;12.80;56.00
24224;DHT22;12359;49.716;9.212;2023-09-07T04:37:43;12.80;54.60
24224;DHT22;12359;49.716;9.212;2023-09-07T04:40:09;12.80;53.80
24224;DHT22;12359;49.716;9.212;2023-09-07T04:42:35;12.80;53.80
24224;DHT22;12359;49.716;9.212;2023-09-07T04:45:01;12.80;51.90
24224;DHT22;12359;49.716;9.212;2023-09-07T04:47:27;12.80;54.10
24224;DHT22;12359;49.716;9.212;2023-09-07T04:49:52;12.70;54.50
24224;DHT22;12359;49.716;9.212;2023-09-07T04:52:18;12.80;55.90
24224;DHT22;12359;49.716;9.212;2023-09-07T04:54:44;12.70;56.10
24224;DHT22;12359;49.716;9.212;2023-09-07T04:57:11;12.80;55.00
24224;DHT22;12359;49.716;9.212;2023-09-07T04:59:36;12.80;53.20
24224;DHT22;12359;49.716;9.212;2023-09-07T05:02:02;12.80;52.60
24224;DHT22;12359;49.716;9.212;2023-09-07T05:04:28;12.80;50.40
24224;DHT22;12359;49.716;9.212;2023-09-07T05:06:55;12.80;49.00
24224;DHT22;12359;49.716;9.212;2023-09-07T05:09:21;12.80;48.70
24224;DHT22;12359;49.716;9.212;2023-09-07T15:55:01;29.90;99.90
24224;DHT22;12359;49.716;9.212;2023-09-07T15:57:26;29.90;99.90
24224;DHT22;12359;49.716;9.212;2023-09-07T15:59:52;29.90;99.90
24224;DHT22;12359;49.716;9.212;2023-09-07T16:02:18;29.80;99.90
24224;DHT22;12359;49.716;9.212;2023-09-07T16:04:44;29.80;99.90
24224;DHT22;12359;49.716;9.212;2023-09-07T16:07:09;29.80;99.90
24224;DHT22;12359;49.716;9.212;2023-09-07T16:09:35;29.80;99.90
24224;DHT22;12359;49.716;9.212;2023-09-07T16:12:01;29.70;99.90
24224;DHT22;12359;49.716;9.212;2023-09-07T16:14:26;29.70;99.90
24224;DHT22;12359;49.716;9.212;2023-09-07T16:16:53;29.70;99.90
24224;DHT22;12359;49.716;9.212;2023-09-07T16:19:19;29.80;99.90
24224;DHT22;12359;49.716;9.212;2023-09-07T16:21:45;29.70;99.90
24224;DHT22;12359;49.716;9.212;2023-09-07T16:24:10;29.70;99.90
24224;DHT22;12359;49.716;9.212;2023-09-07T16:26:36;29.60;99.90
24224;DHT22;12359;49.716;9.212;2023-09-07T16:29:02;29.50;99.90
24224;DHT22;12359;49.716;9.212;2023-09-07T16:31:27;29.50;99.90
24224;DHT22;12359;49.716;9.212;2023-09-07T16:33:53;29.40;99.90
24224;DHT22;12359;49.716;9.212;2023-09-07T16:36:19;29.30;99.90
24224;DHT22;12359;49.716;9.212;2023-09-07T16:38:45;29.20;99.90
24224;DHT22;12359;49.716;9.212;2023-09-07T16:41:10;29.20;99.90
24224;DHT22;12359;49.716;9.212;2023-09-07T16:43:36;29.10;99.90
24224;DHT22;12359;49.716;9.212;2023-09-07T16:46:03;28.90;99.90
24224;DHT22;12359;49.716;9.212;2023-09-07T16:48:32;28.70;99.90
24224;DHT22;12359;49.716;9.212;2023-09-07T16:50:57;28.60;99.90
24224;DHT22;12359;49.716;9.212;2023-09-07T16:53:23;28.40;99.90
24224;DHT22;12359;49.716;9.212;2023-09-07T16:55:49;28.20;99.90
24224;DHT22;12359;49.716;9.212;2023-09-07T16:58:15;28.00;99.90
24224;DHT22;12359;49.716;9.212;2023-09-07T17:00:41;27.90;99.90
24224;DHT22;12359;49.716;9.212;2023-09-07T17:03:06;27.70;99.90
24224;DHT22;12359;49.716;9.212;2023-09-07T17:05:36;27.50;99.90
24224;DHT22;12359;49.716;9.212;2023-09-07T17:08:04;27.30;99.90
24224;DHT22;12359;49.716;9.212;2023-09-07T17:10:30;27.20;99.90
24224;DHT22;12359;49.716;9.212;2023-09-07T17:12:56;27.00;99.90
24224;DHT22;12359;49.716;9.212;2023-09-07T17:15:22;26.80;99.90
24224;DHT22;12359;49.716;9.212;2023-09-07T17:17:51;26.60;99.90
24224;DHT22;12359;49.716;9.212;2023-09-07T17:20:17;26.40;99.90
24224;DHT22;12359;49.716;9.212;2023-09-07T17:22:43;26.30;99.90
24224;DHT22;12359;49.716;9.212;2023-09-07T17:25:15;26.10;99.90
24224;DHT22;12359;49.716;9.212;2023-09-07T17:27:46;26.00;99.90
24224;DHT22;12359;49.716;9.212;2023-09-07T17:30:12;25.80;99.90
24224;DHT22;12359;49.716;9.212;2023-09-07T17:32:39;25.60;99.90
24224;DHT22;12359;49.716;9.212;2023-09-07T17:35:06;25.50;99.90
24224;DHT22;12359;49.716;9.212;2023-09-07T17:37:32;25.40;99.90
24224;DHT22;12359;49.716;9.212;2023-09-07T17:39:59;25.30;99.90
24224;DHT22;12359;49.716;9.212;2023-09-07T17:42:25;25.20;99.90
24224;DHT22;12359;49.716;9.212;2023-09-07T17:44:51;25.00;99.90
24224;DHT22;12359;49.716;9.212;2023-09-07T17:47:17;24.80;99.90
24224;DHT22;12359;49.716;9.212;2023-09-07T17:49:42;24.60;99.90
24224;DHT22;12359;49.716;9.212;2023-09-07T17:52:08;24.40;99.90
24224;DHT22;12359;49.716;9.212;2023-09-07T17:54:34;24.30;99.90
24224;DHT22;12359;49.716;9.212;2023-09-07T17:56:59;24.20;99.90
24224;DHT22;12359;49.716;9.212;2023-09-07T17:59:25;24.10;99.90
24224;DHT22;12359;49.716;9.212;2023-09-07T18:01:53;24.00;99.90
24224;DHT22;12359;49.716;9.212;2023-09-07T18:04:19;23.90;99.90
24224;DHT22;12359;49.716;9.212;2023-09-07T18:06:45;23.80;99.90
24224;DHT22;12359;49.716;9.212;2023-09-07T18:09:11;23.70;99.90
24224;DHT22;12359;49.716;9.212;2023-09-07T18:11:36;23.70;99.90
24224;DHT22;12359;49.716;9.212;2023-09-07T18:14:02;23.60;99.90
24224;DHT22;12359;49.716;9.212;2023-09-07T18:16:28;23.50;99.90
24224;DHT22;12359;49.716;9.212;2023-09-07T18:18:54;23.40;99.90
24224;DHT22;12359;49.716;9.212;2023-09-07T18:21:20;23.20;99.90
24224;DHT22;12359;49.716;9.212;2023-09-07T18:23:46;23.00;99.90
24224;DHT22;12359;49.716;9.212;2023-09-07T18:26:12;22.80;99.90
24224;DHT22;12359;49.716;9.212;2023-09-07T18:28:38;22.70;1.00
24224;DHT22;12359;49.716;9.212;2023-09-07T18:31:08;22.50;1.00
24224;DHT22;12359;49.716;9.212;2023-09-07T18:33:34;22.40;1.00
24224;DHT22;12359;49.716;9.212;2023-09-07T18:38:27;22.00;99.90
24224;DHT22;12359;49.716;9.212;2023-09-07T18:40:53;21.80;99.90
24224;DHT22;12359;49.716;9.212;2023-09-07T18:43:18;21.70;99.90
24224;DHT22;12359;49.716;9.212;2023-09-07T18:45:44;21.60;99.90
24224;DHT22;12359;49.716;9.212;2023-09-07T18:48:10;21.40;99.90
24224;DHT22;12359;49.716;9.212;2023-09-07T18:50:35;21.40;99.90
24224;DHT22;12359;49.716;9.212;2023-09-07T18:53:01;21.20;99.90
24224;DHT22;12359;49.716;9.212;2023-09-07T18:55:26;21.00;1.00
24224;DHT22;12359;49.716;9.212;2023-09-07T18:57:53;20.90;1.00
24224;DHT22;12359;49.716;9.212;2023-09-07T19:00:19;20.90;1.00
24224;DHT22;12359;49.716;9.212;2023-09-07T19:02:46;20.80;19.60
24224;DHT22;12359;49.716;9.212;2023-09-07T19:05:12;20.60;99.90
24224;DHT22;12359;49.716;9.212;2023-09-07T19:07:39;20.60;99.90
24224;DHT22;12359;49.716;9.212;2023-09-07T19:10:05;20.60;99.90
24224;DHT22;12359;49.716;9.212;2023-09-07T19:12:31;20.50;99.90
24224;DHT22;12359;49.716;9.212;2023-09-07T19:14:59;20.40;1.00
24224;DHT22;12359;49.716;9.212;2023-09-07T19:17:25;20.20;99.90
24224;DHT22;12359;49.716;9.212;2023-09-07T19:19:51;20.10;99.90
24224;DHT22;12359;49.716;9.212;2023-09-07T19:22:18;20.00;99.90
24224;DHT22;12359;49.716;9.212;2023-09-07T19:24:44;19.80;99.90
24224;DHT22;12359;49.716;9.212;2023-09-07T19:27:10;19.90;99.90
24224;DHT22;12359;49.716;9.212;2023-09-07T19:29:36;19.90;99.90
24224;DHT22;12359;49.716;9.212;2023-09-07T19:32:04;20.00;99.90
24224;DHT22;12359;49.716;9.212;2023-09-07T19:34:30;19.90;99.90
24224;DHT22;12359;49.716;9.212;2023-09-07T19:36:55;19.90;99.90
24224;DHT22;12359;49.716;9.212;2023-09-07T19:39:21;19.90;99.90
24224;DHT22;12359;49.716;9.212;2023-09-07T19:41:48;19.90;99.90
24224;DHT22;12359;49.716;9.212;2023-09-07T19:44:14;19.90;99.90
24224;DHT22;12359;49.716;9.212;2023-09-07T19:46:41;19.90;99.90
24224;DHT22;12359;49.716;9.212;2023-09-07T19:49:06;19.80;1.00
24224;DHT22;12359;49.716;9.212;2023-09-07T19:51:32;19.80;99.90
24224;DHT22;12359;49.716;9.212;2023-09-07T19:53:58;19.60;99.90
24224;DHT22;12359;49.716;9.212;2023-09-07T19:56:26;19.70;1.00
24224;DHT22;12359;49.716;9.212;2023-09-07T19:58:52;19.70;1.00
24224;DHT22;12359;49.716;9.212;2023-09-07T20:01:19;19.60;76.80
24224;DHT22;12359;49.716;9.212;2023-09-07T20:03:47;19.60;99.90
24224;DHT22;12359;49.716;9.212;2023-09-07T20:06:15;19.50;99.90
24224;DHT22;12359;49.716;9.212;2023-09-07T20:08:41;19.50;4.60
24224;DHT22;12359;49.716;9.212;2023-09-07T20:11:11;19.50;99.90
24224;DHT22;12359;49.716;9.212;2023-09-07T20:13:37;19.40;1.00
24224;DHT22;12359;49.716;9.212;2023-09-07T20:16:03;19.40;7.30
24224;DHT22;12359;49.716;9.212;2023-09-07T20:18:29;19.30;31.30
24224;DHT22;12359;49.716;9.212;2023-09-07T20:20:54;19.20;99.90
24224;DHT22;12359;49.716;9.212;2023-09-07T20:23:21;19.20;99.90
24224;DHT22;12359;49.716;9.212;2023-09-07T20:25:47;19.10;16.60
24224;DHT22;12359;49.716;9.212;2023-09-07T20:28:13;19.10;99.90
24224;DHT22;12359;49.716;9.212;2023-09-07T20:30:38;19.00;99.90
24224;DHT22;12359;49.716;9.212;2023-09-07T20:33:04;18.90;64.50
24224;DHT22;12359;49.716;9.212;2023-09-07T20:35:30;18.80;99.90
24224;DHT22;12359;49.716;9.212;2023-09-07T20:38:00;18.70;1.00
24224;DHT22;12359;49.716;9.212;2023-09-07T20:40:27;18.80;1.00
24224;DHT22;12359;49.716;9.212;2023-09-07T20:42:53;18.80;1.00
24224;DHT22;12359;49.716;9.212;2023-09-07T20:45:22;18.70;1.00
24224;DHT22;12359;49.716;9.212;2023-09-07T20:47:52;18.60;1.00
24224;DHT22;12359;49.716;9.212;2023-09-07T20:50:18;18.50;99.90
24224;DHT22;12359;49.716;9.212;2023-09-07T20:52:44;18.40;99.90
24224;DHT22;12359;49.716;9.212;2023-09-07T20:55:10;18.40;99.90
24224;DHT22;12359;49.716;9.212;2023-09-07T20:57:37;18.30;99.90
24224;DHT22;12359;49.716;9.212;2023-09-07T21:00:07;18.20;1.00
24224;DHT22;12359;49.716;9.212;2023-09-07T21:02:36;18.20;1.00
24224;DHT22;12359;49.716;9.212;2023-09-07T21:05:02;18.20;1.00
24224;DHT22;12359;49.716;9.212;2023-09-07T21:07:28;18.10;1.00
24224;DHT22;12359;49.716;9.212;2023-09-07T21:09:54;17.90;27.30
24224;DHT22;12359;49.716;9.212;2023-09-07T21:12:20;17.90;68.70
24224;DHT22;12359;49.716;9.212;2023-09-07T21:14:46;17.70;99.90
24224;DHT22;12359;49.716;9.212;2023-09-07T21:17:11;17.70;99.90
24224;DHT22;12359;49.716;9.212;2023-09-07T21:19:38;17.60;99.90
24224;DHT22;12359;49.716;9.212;2023-09-07T21:22:04;17.60;99.90
24224;DHT22;12359;49.716;9.212;2023-09-07T21:24:29;17.60;99.90
24224;DHT22;12359;49.716;9.212;2023-09-07T21:26:55;17.60;99.90
24224;DHT22;12359;49.716;9.212;2023-09-07T21:29:22;17.60;99.90
24224;DHT22;12359;49.716;9.212;2023-09-07T21:31:48;17.60;99.90
24224;DHT22;12359;49.716;9.212;2023-09-07T21:34:13;17.60;99.90
24224;DHT22;12359;49.716;9.212;2023-09-07T21:36:39;17.50;99.90
24224;DHT22;12359;49.716;9.212;2023-09-07T21:39:06;17.50;99.90
24224;DHT22;12359;49.716;9.212;2023-09-07T21:41:51;17.40;99.90
24224;DHT22;12359;49.716;9.212;2023-09-07T21:44:18;17.50;99.90
24224;DHT22;12359;49.716;9.212;2023-09-07T21:46:44;17.40;99.90
24224;DHT22;12359;49.716;9.212;2023-09-07T21:49:10;17.40;99.90
24224;DHT22;12359;49.716;9.212;2023-09-07T21:51:39;17.40;99.90
24224;DHT22;12359;49.716;9.212;2023-09-07T21:54:06;17.30;99.90
24224;DHT22;12359;49.716;9.212;2023-09-07T21:56:32;17.30;99.90
24224;DHT22;12359;49.716;9.212;2023-09-07T21:58:58;17.20;99.90
24224;DHT22;12359;49.716;9.212;2023-09-07T22:01:24;17.20;99.90
24224;DHT22;12359;49.716;9.212;2023-09-07T22:03:50;17.10;99.90
24224;DHT22;12359;49.716;9.212;2023-09-07T22:06:16;17.10;99.90
24224;DHT22;12359;49.716;9.212;2023-09-07T22:08:42;17.00;99.90
24224;DHT22;12359;49.716;9.212;2023-09-07T22:11:08;17.00;99.90
24224;DHT22;12359;49.716;9.212;2023-09-07T22:13:34;16.90;99.90
24224;DHT22;12359;49.716;9.212;2023-09-07T22:16:00;16.90;99.90
24224;DHT22;12359;49.716;9.212;2023-09-07T22:18:25;16.90;99.90
24224;DHT22;12359;49.716;9.212;2023-09-07T22:20:51;16.80;1.00
24224;DHT22;12359;49.716;9.212;2023-09-07T22:23:17;16.80;1.00
24224;DHT22;12359;49.716;9.212;2023-09-07T22:25:45;16.80;1.00
24224;DHT22;12359;49.716;9.212;2023-09-07T22:28:10;16.70;1.00
24224;DHT22;12359;49.716;9.212;2023-09-07T22:30:38;16.70;1.00
24224;DHT22;12359;49.716;9.212;2023-09-07T22:33:05;16.60;1.00
24224;DHT22;12359;49.716;9.212;2023-09-07T22:35:31;16.50;1.00
24224;DHT22;12359;49.716;9.212;2023-09-07T22:37:57;16.60;1.00
24224;DHT22;12359;49.716;9.212;2023-09-07T22:40:22;16.60;1.00
24224;DHT22;12359;49.716;9.212;2023-09-07T22:42:48;16.50;1.00
24224;DHT22;12359;49.716;9.212;2023-09-07T22:45:14;16.50;1.00
24224;DHT22;12359;49.716;9.212;2023-09-07T22:47:40;16.40;1.00
24224;DHT22;12359;49.716;9.212;2023-09-07T22:50:07;16.40;1.00
24224;DHT22;12359;49.716;9.212;2023-09-07T22:52:33;16.40;1.00
24224;DHT22;12359;49.716;9.212;2023-09-07T22:55:06;16.30;1.00
24224;DHT22;12359;49.716;9.212;2023-09-07T22:57:36;16.30;1.00
24224;DHT22;12359;49.716;9.212;2023-09-07T23:00:02;16.20;1.00
24224;DHT22;12359;49.716;9.212;2023-09-07T23:02:31;16.20;1.00
24224;DHT22;12359;49.716;9.212;2023-09-07T23:04:57;16.10;1.00
24224;DHT22;12359;49.716;9.212;2023-09-07T23:07:23;16.20;1.00
24224;DHT22;12359;49.716;9.212;2023-09-07T23:09:48;16.10;1.00
24224;DHT22;12359;49.716;9.212;2023-09-07T23:12:15;16.10;1.00
24224;DHT22;12359;49.716;9.212;2023-09-07T23:14:41;16.00;1.00
24224;DHT22;12359;49.716;9.212;2023-09-07T23:17:07;16.00;1.00
24224;DHT22;12359;49.716;9.212;2023-09-07T23:19:33;16.00;1.00
24224;DHT22;12359;49.716;9.212;2023-09-07T23:21:58;15.90;1.00
24224;DHT22;12359;49.716;9.212;2023-09-07T23:24:24;15.90;1.00
24224;DHT22;12359;49.716;9.212;2023-09-07T23:26:50;15.90;1.00
24224;DHT22;12359;49.716;9.212;2023-09-07T23:29:17;15.80;1.00
24224;DHT22;12359;49.716;9.212;2023-09-07T23:31:43;15.80;1.00
24224;DHT22;12359;49.716;9.212;2023-09-07T23:34:12;15.80;1.00
24224;DHT22;12359;49.716;9.212;2023-09-07T23:36:37;15.70;1.00
24224;DHT22;12359;49.716;9.212;2023-09-07T23:39:04;15.70;1.00
24224;DHT22;12359;49.716;9.212;2023-09-07T23:41:30;15.60;1.00
24224;DHT22;12359;49.716;9.212;2023-09-07T23:43:55;15.60;1.00
24224;DHT22;12359;49.716;9.212;2023-09-07T23:46:21;15.50;1.00
24224;DHT22;12359;49.716;9.212;2023-09-07T23:48:47;15.40;1.00
24224;DHT22;12359;49.716;9.212;2023-09-07T23:51:13;15.40;2.50
24224;DHT22;12359;49.716;9.212;2023-09-07T23:53:39;15.30;8.00
24224;DHT22;12359;49.716;9.212;2023-09-07T23:56:05;15.30;10.10
24224;DHT22;12359;49.716;9.212;2023-09-07T23:58:31;15.30;10.20
